sensor_id;sensor_type;location;lat;lon;timestamp;pressure;altitude;pressure_sealevel;temperature;humidity
55540;BME280;41384;51.418;7.286;2022-08-25T00:01:13;100043.28;;;24.12;43.84
55540;BME280;41384;51.418;7.286;2022-08-25T00:03:41;100043.94;;;24.04;44.46
55540;BME280;41384;51.418;7.286;2022-08-25T00:06:08;100041.91;;;24.15;44.29
55540;BME280;41384;51.418;7.286;2022-08-25T00:08:35;100044.44;;;24.06;44.37
55540;BME280;41384;51.418;7.286;2022-08-25T00:11:10;100048.75;;;24.07;44.32
55540;BME280;41384;51.418;7.286;2022-08-25T00:13:39;100051.94;;;24.09;44.55
55540;BME280;41384;51.418;7.286;2022-08-25T00:16:08;100045.19;;;24.12;43.88
55540;BME280;41384;51.418;7.286;2022-08-25T00:18:34;100041.47;;;24.08;43.87
55540;BME280;41384;51.418;7.286;2022-08-25T00:21:01;100038.78;;;24.08;44.16
55540;BME280;41384;51.418;7.286;2022-08-25T00:23:26;100039.69;;;23.98;44.41
55540;BME280;41384;51.418;7.286;2022-08-25T00:25:52;100049.56;;;24.08;44.03
55540;BME280;41384;51.418;7.286;2022-08-25T00:28:17;100041.81;;;24.01;44.20
55540;BME280;41384;51.418;7.286;2022-08-25T00:30:43;100047.41;;;23.85;44.53
55540;BME280;41384;51.418;7.286;2022-08-25T00:33:09;100046.47;;;23.95;44.40
55540;BME280;41384;51.418;7.286;2022-08-25T00:35:34;100051.34;;;23.93;43.96
55540;BME280;41384;51.418;7.286;2022-08-25T00:38:00;100037.28;;;23.96;44.49
55540;BME280;41384;51.418;7.286;2022-08-25T00:40:26;100047.91;;;23.87;44.24
55540;BME280;41384;51.418;7.286;2022-08-25T00:42:52;100047.84;;;23.93;44.29
55540;BME280;41384;51.418;7.286;2022-08-25T00:45:18;100044.56;;;23.96;44.29
55540;BME280;41384;51.418;7.286;2022-08-25T00:47:43;100047.78;;;23.98;44.22
55540;BME280;41384;51.418;7.286;2022-08-25T00:50:10;100049.16;;;23.95;44.51
55540;BME280;41384;51.418;7.286;2022-08-25T00:52:50;100047.78;;;23.98;44.62
55540;BME280;41384;51.418;7.286;2022-08-25T00:55:23;100046.25;;;23.92;44.52
55540;BME280;41384;51.418;7.286;2022-08-25T00:57:54;100047.31;;;23.90;44.47
55540;BME280;41384;51.418;7.286;2022-08-25T01:00:25;100044.94;;;23.89;44.17
55540;BME280;41384;51.418;7.286;2022-08-25T01:02:51;100052.22;;;23.88;44.37
55540;BME280;41384;51.418;7.286;2022-08-25T01:05:17;100051.19;;;23.84;44.35
55540;BME280;41384;51.418;7.286;2022-08-25T01:07:43;100047.31;;;23.90;44.36
55540;BME280;41384;51.418;7.286;2022-08-25T01:10:10;100048.06;;;23.96;44.26
55540;BME280;41384;51.418;7.286;2022-08-25T01:12:38;100043.63;;;23.86;44.22
55540;BME280;41384;51.418;7.286;2022-08-25T01:15:07;100041.56;;;23.78;44.32
55540;BME280;41384;51.418;7.286;2022-08-25T01:17:48;100046.88;;;23.83;44.01
55540;BME280;41384;51.418;7.286;2022-08-25T01:20:15;100044.19;;;23.83;44.14
55540;BME280;41384;51.418;7.286;2022-08-25T01:22:41;100039.28;;;23.66;44.38
55540;BME280;41384;51.418;7.286;2022-08-25T01:25:21;100041.97;;;23.66;44.36
55540;BME280;41384;51.418;7.286;2022-08-25T01:27:49;100044.31;;;23.73;44.29
55540;BME280;41384;51.418;7.286;2022-08-25T01:30:14;100047.03;;;23.73;44.53
55540;BME280;41384;51.418;7.286;2022-08-25T01:32:39;100042.63;;;23.58;44.88
55540;BME280;41384;51.418;7.286;2022-08-25T01:35:05;100037.47;;;23.61;44.76
55540;BME280;41384;51.418;7.286;2022-08-25T01:37:33;100040.88;;;23.67;44.63
55540;BME280;41384;51.418;7.286;2022-08-25T01:39:59;100040.94;;;23.62;44.76
55540;BME280;41384;51.418;7.286;2022-08-25T01:45:13;100044.47;;;23.63;45.12
55540;BME280;41384;51.418;7.286;2022-08-25T01:47:38;100044.59;;;23.71;45.01
55540;BME280;41384;51.418;7.286;2022-08-25T01:50:05;100047.66;;;23.65;45.32
55540;BME280;41384;51.418;7.286;2022-08-25T01:52:36;100039.78;;;23.49;45.52
55540;BME280;41384;51.418;7.286;2022-08-25T01:55:02;100041.94;;;23.47;45.73
55540;BME280;41384;51.418;7.286;2022-08-25T01:57:30;100037.66;;;23.46;46.06
55540;BME280;41384;51.418;7.286;2022-08-25T01:59:56;100043.56;;;23.48;46.04
55540;BME280;41384;51.418;7.286;2022-08-25T02:02:22;100031.31;;;23.56;45.78
55540;BME280;41384;51.418;7.286;2022-08-25T02:04:47;100034.59;;;23.53;45.69
55540;BME280;41384;51.418;7.286;2022-08-25T02:07:13;100031.31;;;23.56;45.88
55540;BME280;41384;51.418;7.286;2022-08-25T02:09:39;100032.47;;;23.50;46.07
55540;BME280;41384;51.418;7.286;2022-08-25T02:12:05;100033.28;;;23.50;46.29
55540;BME280;41384;51.418;7.286;2022-08-25T02:14:31;100037.41;;;23.42;46.50
55540;BME280;41384;51.418;7.286;2022-08-25T02:16:56;100027.72;;;23.41;46.82
55540;BME280;41384;51.418;7.286;2022-08-25T02:19:23;100031.50;;;23.40;46.41
55540;BME280;41384;51.418;7.286;2022-08-25T02:21:50;100030.41;;;23.41;46.72
55540;BME280;41384;51.418;7.286;2022-08-25T02:24:16;100035.63;;;23.32;46.88
55540;BME280;41384;51.418;7.286;2022-08-25T02:26:42;100037.75;;;23.36;46.73
55540;BME280;41384;51.418;7.286;2022-08-25T02:29:08;100033.00;;;23.27;47.37
55540;BME280;41384;51.418;7.286;2022-08-25T02:31:33;100029.66;;;23.36;47.38
55540;BME280;41384;51.418;7.286;2022-08-25T02:33:59;100025.84;;;23.42;47.14
55540;BME280;41384;51.418;7.286;2022-08-25T02:36:26;100025.94;;;23.31;47.25
55540;BME280;41384;51.418;7.286;2022-08-25T02:38:51;100031.91;;;23.28;47.48
55540;BME280;41384;51.418;7.286;2022-08-25T02:41:22;100040.50;;;23.30;47.83
55540;BME280;41384;51.418;7.286;2022-08-25T02:43:49;100029.03;;;23.20;47.74
55540;BME280;41384;51.418;7.286;2022-08-25T02:46:17;100038.50;;;23.12;48.08
55540;BME280;41384;51.418;7.286;2022-08-25T02:48:43;100036.91;;;23.11;48.17
55540;BME280;41384;51.418;7.286;2022-08-25T02:51:09;100029.34;;;23.13;48.66
55540;BME280;41384;51.418;7.286;2022-08-25T02:53:37;100031.69;;;23.25;48.37
55540;BME280;41384;51.418;7.286;2022-08-25T02:56:05;100035.56;;;23.38;48.07
55540;BME280;41384;51.418;7.286;2022-08-25T02:58:31;100033.00;;;23.52;48.06
55540;BME280;41384;51.418;7.286;2022-08-25T03:00:57;100030.94;;;23.43;49.14
55540;BME280;41384;51.418;7.286;2022-08-25T03:03:22;100027.31;;;23.53;48.75
55540;BME280;41384;51.418;7.286;2022-08-25T03:05:47;100024.75;;;23.43;50.16
55540;BME280;41384;51.418;7.286;2022-08-25T03:08:13;100026.31;;;23.25;51.92
55540;BME280;41384;51.418;7.286;2022-08-25T03:10:38;100030.88;;;23.24;51.47
55540;BME280;41384;51.418;7.286;2022-08-25T03:13:04;100024.41;;;23.25;51.95
55540;BME280;41384;51.418;7.286;2022-08-25T03:15:29;100029.28;;;23.18;51.98
55540;BME280;41384;51.418;7.286;2022-08-25T03:17:55;100028.25;;;23.14;52.13
55540;BME280;41384;51.418;7.286;2022-08-25T03:20:24;100023.22;;;23.07;52.27
55540;BME280;41384;51.418;7.286;2022-08-25T03:22:50;100011.66;;;23.07;51.92
55540;BME280;41384;51.418;7.286;2022-08-25T03:25:17;100010.50;;;23.13;52.20
55540;BME280;41384;51.418;7.286;2022-08-25T03:28:02;100000.38;;;23.05;52.08
55540;BME280;41384;51.418;7.286;2022-08-25T03:30:28;99997.47;;;22.96;52.35
55540;BME280;41384;51.418;7.286;2022-08-25T03:32:54;99995.84;;;23.00;53.30
55540;BME280;41384;51.418;7.286;2022-08-25T03:35:20;99998.44;;;22.51;55.44
55540;BME280;41384;51.418;7.286;2022-08-25T03:37:45;99995.91;;;22.65;55.48
55540;BME280;41384;51.418;7.286;2022-08-25T03:40:13;100005.19;;;22.43;56.27
55540;BME280;41384;51.418;7.286;2022-08-25T03:42:41;100001.41;;;22.10;57.53
55540;BME280;41384;51.418;7.286;2022-08-25T03:45:07;100001.56;;;21.79;58.84
55540;BME280;41384;51.418;7.286;2022-08-25T03:47:33;100005.19;;;22.04;57.97
55540;BME280;41384;51.418;7.286;2022-08-25T03:49:59;100007.44;;;21.86;58.48
55540;BME280;41384;51.418;7.286;2022-08-25T03:52:24;100004.34;;;21.63;60.02
55540;BME280;41384;51.418;7.286;2022-08-25T03:54:50;100007.75;;;21.79;60.05
55540;BME280;41384;51.418;7.286;2022-08-25T03:57:15;100008.38;;;21.66;60.70
55540;BME280;41384;51.418;7.286;2022-08-25T03:59:40;99994.28;;;21.84;59.43
55540;BME280;41384;51.418;7.286;2022-08-25T04:02:06;99999.72;;;21.74;59.70
55540;BME280;41384;51.418;7.286;2022-08-25T04:04:32;99997.00;;;21.79;59.83
55540;BME280;41384;51.418;7.286;2022-08-25T04:06:57;99998.06;;;21.83;59.77
55540;BME280;41384;51.418;7.286;2022-08-25T04:09:23;100003.16;;;21.80;60.05
55540;BME280;41384;51.418;7.286;2022-08-25T04:11:50;99993.47;;;21.84;59.59
55540;BME280;41384;51.418;7.286;2022-08-25T04:14:15;99994.78;;;21.92;59.59
55540;BME280;41384;51.418;7.286;2022-08-25T04:16:41;99983.44;;;22.00;59.33
55540;BME280;41384;51.418;7.286;2022-08-25T04:19:06;99982.19;;;21.87;60.20
55540;BME280;41384;51.418;7.286;2022-08-25T04:21:34;99985.38;;;21.89;59.72
55540;BME280;41384;51.418;7.286;2022-08-25T04:23:59;99986.44;;;21.93;59.69
55540;BME280;41384;51.418;7.286;2022-08-25T04:26:31;99977.03;;;21.96;59.51
55540;BME280;41384;51.418;7.286;2022-08-25T04:28:57;99968.50;;;21.83;58.80
55540;BME280;41384;51.418;7.286;2022-08-25T04:31:24;99971.19;;;21.83;59.49
55540;BME280;41384;51.418;7.286;2022-08-25T04:33:50;99968.56;;;21.73;59.63
55540;BME280;41384;51.418;7.286;2022-08-25T04:36:17;99972.31;;;21.77;59.93
55540;BME280;41384;51.418;7.286;2022-08-25T04:38:44;99969.69;;;21.56;60.34
55540;BME280;41384;51.418;7.286;2022-08-25T04:41:11;99964.09;;;21.48;61.14
55540;BME280;41384;51.418;7.286;2022-08-25T04:43:38;99970.34;;;21.22;61.60
55540;BME280;41384;51.418;7.286;2022-08-25T04:46:24;99965.66;;;21.59;60.86
55540;BME280;41384;51.418;7.286;2022-08-25T04:48:52;99968.06;;;21.55;60.88
55540;BME280;41384;51.418;7.286;2022-08-25T04:51:21;99969.22;;;21.39;61.49
55540;BME280;41384;51.418;7.286;2022-08-25T04:53:47;99970.31;;;21.38;61.83
55540;BME280;41384;51.418;7.286;2022-08-25T04:56:15;99970.31;;;21.38;62.10
55540;BME280;41384;51.418;7.286;2022-08-25T04:58:40;99972.78;;;21.24;63.36
55540;BME280;41384;51.418;7.286;2022-08-25T05:01:11;99972.78;;;21.19;64.43
55540;BME280;41384;51.418;7.286;2022-08-25T05:03:40;99984.59;;;21.12;63.71
55540;BME280;41384;51.418;7.286;2022-08-25T05:06:06;99978.41;;;21.22;64.11
55540;BME280;41384;51.418;7.286;2022-08-25T05:08:32;99978.97;;;21.19;64.07
55540;BME280;41384;51.418;7.286;2022-08-25T05:10:57;99973.03;;;21.27;63.03
55540;BME280;41384;51.418;7.286;2022-08-25T05:13:24;99983.47;;;21.39;62.79
55540;BME280;41384;51.418;7.286;2022-08-25T05:15:54;99978.31;;;21.43;63.22
55540;BME280;41384;51.418;7.286;2022-08-25T05:18:23;99982.69;;;21.28;63.62
55540;BME280;41384;51.418;7.286;2022-08-25T05:20:50;99987.94;;;21.54;63.07
55540;BME280;41384;51.418;7.286;2022-08-25T05:23:17;99987.38;;;21.63;62.16
55540;BME280;41384;51.418;7.286;2022-08-25T05:25:43;99982.56;;;21.70;61.68
55540;BME280;41384;51.418;7.286;2022-08-25T05:28:08;99981.75;;;21.69;62.20
55540;BME280;41384;51.418;7.286;2022-08-25T05:30:37;99972.09;;;21.63;62.49
55540;BME280;41384;51.418;7.286;2022-08-25T05:33:03;99972.38;;;21.67;62.17
55540;BME280;41384;51.418;7.286;2022-08-25T05:35:29;99976.63;;;21.63;62.47
55540;BME280;41384;51.418;7.286;2022-08-25T05:37:54;99973.41;;;21.71;62.54
55540;BME280;41384;51.418;7.286;2022-08-25T05:40:22;99976.31;;;21.80;62.25
55540;BME280;41384;51.418;7.286;2022-08-25T05:42:47;99975.22;;;21.81;61.99
55540;BME280;41384;51.418;7.286;2022-08-25T05:45:13;99978.97;;;21.85;61.86
55540;BME280;41384;51.418;7.286;2022-08-25T05:47:38;99977.13;;;21.80;61.50
55540;BME280;41384;51.418;7.286;2022-08-25T05:50:05;99974.94;;;21.88;61.32
55540;BME280;41384;51.418;7.286;2022-08-25T05:52:30;99974.34;;;21.96;61.15
55540;BME280;41384;51.418;7.286;2022-08-25T05:54:57;99973.13;;;22.18;60.83
55540;BME280;41384;51.418;7.286;2022-08-25T05:57:22;99969.13;;;22.15;61.31
55540;BME280;41384;51.418;7.286;2022-08-25T05:59:47;99961.47;;;21.93;61.46
55540;BME280;41384;51.418;7.286;2022-08-25T06:02:12;99961.16;;;21.94;61.74
55540;BME280;41384;51.418;7.286;2022-08-25T06:04:56;99959.31;;;21.95;61.25
55540;BME280;41384;51.418;7.286;2022-08-25T06:07:24;99956.91;;;21.88;60.53
55540;BME280;41384;51.418;7.286;2022-08-25T06:09:50;99950.19;;;21.91;60.43
55540;BME280;41384;51.418;7.286;2022-08-25T06:12:16;99957.31;;;22.11;60.08
55540;BME280;41384;51.418;7.286;2022-08-25T06:14:42;99953.16;;;22.24;59.85
55540;BME280;41384;51.418;7.286;2022-08-25T06:17:07;99961.00;;;22.20;59.52
55540;BME280;41384;51.418;7.286;2022-08-25T06:19:33;99955.28;;;22.27;60.65
55540;BME280;41384;51.418;7.286;2022-08-25T06:21:59;99963.56;;;22.36;59.07
55540;BME280;41384;51.418;7.286;2022-08-25T06:24:25;99961.72;;;22.31;59.27
55540;BME280;41384;51.418;7.286;2022-08-25T06:26:51;99973.00;;;22.33;59.64
55540;BME280;41384;51.418;7.286;2022-08-25T06:29:17;99969.44;;;22.43;59.24
55540;BME280;41384;51.418;7.286;2022-08-25T06:31:43;99973.41;;;22.51;59.00
55540;BME280;41384;51.418;7.286;2022-08-25T06:34:10;99974.22;;;22.51;59.58
55540;BME280;41384;51.418;7.286;2022-08-25T06:36:35;99970.41;;;22.57;60.18
55540;BME280;41384;51.418;7.286;2022-08-25T06:39:00;99969.09;;;22.55;60.38
55540;BME280;41384;51.418;7.286;2022-08-25T06:41:26;99970.47;;;22.52;60.28
55540;BME280;41384;51.418;7.286;2022-08-25T06:43:51;99968.50;;;22.63;61.13
55540;BME280;41384;51.418;7.286;2022-08-25T06:46:20;99968.03;;;22.51;61.31
55540;BME280;41384;51.418;7.286;2022-08-25T06:48:46;99970.59;;;22.66;61.25
55540;BME280;41384;51.418;7.286;2022-08-25T06:51:14;99978.84;;;22.75;60.22
55540;BME280;41384;51.418;7.286;2022-08-25T06:53:42;99979.66;;;22.76;59.86
55540;BME280;41384;51.418;7.286;2022-08-25T06:56:08;99983.97;;;22.77;60.31
55540;BME280;41384;51.418;7.286;2022-08-25T06:58:33;99981.22;;;22.82;59.30
55540;BME280;41384;51.418;7.286;2022-08-25T07:01:24;99989.03;;;22.78;60.12
55540;BME280;41384;51.418;7.286;2022-08-25T07:03:53;99992.81;;;22.77;59.73
55540;BME280;41384;51.418;7.286;2022-08-25T07:06:19;99992.72;;;22.87;60.29
55540;BME280;41384;51.418;7.286;2022-08-25T07:08:45;99991.25;;;23.00;60.44
55540;BME280;41384;51.418;7.286;2022-08-25T07:11:11;99992.41;;;22.94;61.33
55540;BME280;41384;51.418;7.286;2022-08-25T07:13:37;99985.25;;;23.09;59.32
55540;BME280;41384;51.418;7.286;2022-08-25T07:16:04;99982.28;;;23.10;60.01
55540;BME280;41384;51.418;7.286;2022-08-25T07:18:30;99986.06;;;23.09;60.32
55540;BME280;41384;51.418;7.286;2022-08-25T07:20:56;99991.72;;;23.08;60.89
55540;BME280;41384;51.418;7.286;2022-08-25T07:23:22;99985.94;;;23.20;59.80
55540;BME280;41384;51.418;7.286;2022-08-25T07:25:48;100001.06;;;23.15;59.41
55540;BME280;41384;51.418;7.286;2022-08-25T07:28:14;99992.09;;;23.25;59.50
55540;BME280;41384;51.418;7.286;2022-08-25T07:30:40;99991.84;;;23.22;59.68
55540;BME280;41384;51.418;7.286;2022-08-25T07:33:06;99996.41;;;23.21;60.21
55540;BME280;41384;51.418;7.286;2022-08-25T07:35:31;99989.13;;;23.27;59.69
55540;BME280;41384;51.418;7.286;2022-08-25T07:37:57;99980.47;;;23.30;60.21
55540;BME280;41384;51.418;7.286;2022-08-25T07:40:32;99980.75;;;23.28;60.62
55540;BME280;41384;51.418;7.286;2022-08-25T07:43:01;99973.16;;;23.30;60.63
55540;BME280;41384;51.418;7.286;2022-08-25T07:45:30;99968.19;;;23.43;59.28
55540;BME280;41384;51.418;7.286;2022-08-25T07:48:01;99972.03;;;23.37;60.66
55540;BME280;41384;51.418;7.286;2022-08-25T07:50:27;99971.44;;;23.40;60.77
55540;BME280;41384;51.418;7.286;2022-08-25T07:52:54;99983.47;;;23.48;60.05
55540;BME280;41384;51.418;7.286;2022-08-25T07:55:19;99976.16;;;23.53;60.00
55540;BME280;41384;51.418;7.286;2022-08-25T07:57:45;99978.03;;;23.53;60.93
55540;BME280;41384;51.418;7.286;2022-08-25T08:00:13;99971.72;;;23.63;60.77
55540;BME280;41384;51.418;7.286;2022-08-25T08:02:40;99970.03;;;23.67;60.22
55540;BME280;41384;51.418;7.286;2022-08-25T08:05:07;99977.25;;;23.71;59.22
55540;BME280;41384;51.418;7.286;2022-08-25T08:07:32;99970.47;;;23.74;59.95
55540;BME280;41384;51.418;7.286;2022-08-25T08:09:58;99972.78;;;23.81;60.08
55540;BME280;41384;51.418;7.286;2022-08-25T08:12:24;99967.91;;;23.83;60.21
55540;BME280;41384;51.418;7.286;2022-08-25T08:14:50;99964.28;;;23.93;60.12
55540;BME280;41384;51.418;7.286;2022-08-25T08:17:16;99972.09;;;23.94;59.52
55540;BME280;41384;51.418;7.286;2022-08-25T08:19:41;99964.78;;;23.95;59.31
55540;BME280;41384;51.418;7.286;2022-08-25T08:22:07;99962.56;;;24.02;58.72
55540;BME280;41384;51.418;7.286;2022-08-25T08:24:35;99970.56;;;24.07;58.72
55540;BME280;41384;51.418;7.286;2022-08-25T08:27:06;99968.81;;;24.16;59.25
55540;BME280;41384;51.418;7.286;2022-08-25T08:29:33;99970.31;;;24.23;58.32
55540;BME280;41384;51.418;7.286;2022-08-25T08:31:59;99970.03;;;24.24;58.76
55540;BME280;41384;51.418;7.286;2022-08-25T08:34:24;99972.47;;;24.40;58.89
55540;BME280;41384;51.418;7.286;2022-08-25T08:36:50;99971.00;;;24.47;59.24
55540;BME280;41384;51.418;7.286;2022-08-25T08:39:15;99965.06;;;24.31;58.86
55540;BME280;41384;51.418;7.286;2022-08-25T08:42:36;99950.53;;;24.46;59.18
55540;BME280;41384;51.418;7.286;2022-08-25T08:55:31;99934.69;;;25.15;56.89
55540;BME280;41384;51.418;7.286;2022-08-25T08:58:00;99929.22;;;24.92;57.26
55540;BME280;41384;51.418;7.286;2022-08-25T09:00:27;99924.91;;;24.91;57.51
55540;BME280;41384;51.418;7.286;2022-08-25T09:03:09;99920.13;;;25.02;56.61
55540;BME280;41384;51.418;7.286;2022-08-25T09:05:50;99915.88;;;25.38;56.05
55540;BME280;41384;51.418;7.286;2022-08-25T09:08:16;99914.69;;;25.30;56.44
55540;BME280;41384;51.418;7.286;2022-08-25T09:11:22;99921.19;;;25.29;57.61
55540;BME280;41384;51.418;7.286;2022-08-25T09:16:56;99918.97;;;25.31;56.35
55540;BME280;41384;51.418;7.286;2022-08-25T09:20:03;99918.38;;;25.34;56.45
55540;BME280;41384;51.418;7.286;2022-08-25T09:22:50;99909.88;;;25.41;55.69
55540;BME280;41384;51.418;7.286;2022-08-25T09:25:32;99912.25;;;25.56;55.45
55540;BME280;41384;51.418;7.286;2022-08-25T09:30:49;99899.63;;;25.88;53.40
55540;BME280;41384;51.418;7.286;2022-08-25T09:33:24;99901.03;;;25.63;54.79
55540;BME280;41384;51.418;7.286;2022-08-25T09:35:52;99892.84;;;25.77;54.46
55540;BME280;41384;51.418;7.286;2022-08-25T09:38:18;99895.75;;;25.81;55.26
55540;BME280;41384;51.418;7.286;2022-08-25T09:40:55;99884.88;;;25.94;54.15
55540;BME280;41384;51.418;7.286;2022-08-25T09:43:45;99894.47;;;25.78;54.43
55540;BME280;41384;51.418;7.286;2022-08-25T09:46:26;99886.81;;;26.03;54.59
55540;BME280;41384;51.418;7.286;2022-08-25T09:48:56;99885.47;;;25.91;53.81
55540;BME280;41384;51.418;7.286;2022-08-25T09:51:26;99881.50;;;25.89;53.63
55540;BME280;41384;51.418;7.286;2022-08-25T09:53:57;99870.50;;;26.08;52.73
55540;BME280;41384;51.418;7.286;2022-08-25T09:56:26;99875.59;;;26.10;52.54
55540;BME280;41384;51.418;7.286;2022-08-25T09:58:53;99874.13;;;26.03;52.36
55540;BME280;41384;51.418;7.286;2022-08-25T10:01:20;99868.72;;;26.03;52.64
55540;BME280;41384;51.418;7.286;2022-08-25T10:03:56;99863.75;;;26.19;51.99
55540;BME280;41384;51.418;7.286;2022-08-25T10:06:23;99856.47;;;26.29;50.97
55540;BME280;41384;51.418;7.286;2022-08-25T10:11:32;99856.97;;;26.40;49.74
55540;BME280;41384;51.418;7.286;2022-08-25T10:14:05;99848.38;;;26.37;48.80
55540;BME280;41384;51.418;7.286;2022-08-25T10:16:32;99850.72;;;26.30;49.61
55540;BME280;41384;51.418;7.286;2022-08-25T10:19:10;99832.38;;;26.59;48.44
55540;BME280;41384;51.418;7.286;2022-08-25T10:21:38;99844.47;;;26.52;47.87
55540;BME280;41384;51.418;7.286;2022-08-25T10:24:04;99838.72;;;26.94;45.89
55540;BME280;41384;51.418;7.286;2022-08-25T10:26:54;99847.69;;;26.63;47.33
55540;BME280;41384;51.418;7.286;2022-08-25T10:32:35;99829.72;;;26.68;47.28
55540;BME280;41384;51.418;7.286;2022-08-25T10:35:17;99830.41;;;26.91;45.87
55540;BME280;41384;51.418;7.286;2022-08-25T10:40:32;99820.00;;;26.75;44.53
55540;BME280;41384;51.418;7.286;2022-08-25T10:46:04;99818.34;;;27.15;45.85
55540;BME280;41384;51.418;7.286;2022-08-25T11:08:02;99790.91;;;27.16;43.43
55540;BME280;41384;51.418;7.286;2022-08-25T11:10:48;99793.97;;;27.41;42.51
55540;BME280;41384;51.418;7.286;2022-08-25T11:13:43;99790.28;;;27.28;42.62
55540;BME280;41384;51.418;7.286;2022-08-25T11:16:16;99785.66;;;27.55;43.21
55540;BME280;41384;51.418;7.286;2022-08-25T11:21:30;99790.59;;;27.44;41.30
55540;BME280;41384;51.418;7.286;2022-08-25T11:26:54;99771.88;;;27.87;41.22
55540;BME280;41384;51.418;7.286;2022-08-25T11:29:21;99775.75;;;27.68;40.17
55540;BME280;41384;51.418;7.286;2022-08-25T11:31:51;99772.81;;;28.00;40.22
55540;BME280;41384;51.418;7.286;2022-08-25T11:34:16;99778.09;;;27.87;40.21
55540;BME280;41384;51.418;7.286;2022-08-25T11:36:50;99773.56;;;28.48;38.37
55540;BME280;41384;51.418;7.286;2022-08-25T11:48:01;99769.66;;;28.58;38.58
55540;BME280;41384;51.418;7.286;2022-08-25T11:50:53;99775.78;;;28.16;39.64
55540;BME280;41384;51.418;7.286;2022-08-25T11:56:10;99774.84;;;28.03;39.63
55540;BME280;41384;51.418;7.286;2022-08-25T11:58:54;99772.09;;;28.11;39.50
55540;BME280;41384;51.418;7.286;2022-08-25T12:04:37;99769.09;;;28.04;39.20
55540;BME280;41384;51.418;7.286;2022-08-25T12:09:30;99760.72;;;28.27;38.81
55540;BME280;41384;51.418;7.286;2022-08-25T12:11:56;99756.84;;;28.37;38.47
55540;BME280;41384;51.418;7.286;2022-08-25T12:21:48;99754.59;;;28.39;39.69
55540;BME280;41384;51.418;7.286;2022-08-25T12:24:15;99749.63;;;28.11;39.55
55540;BME280;41384;51.418;7.286;2022-08-25T12:26:56;99744.28;;;27.85;39.51
55540;BME280;41384;51.418;7.286;2022-08-25T12:37:04;99735.28;;;28.02;39.37
55540;BME280;41384;51.418;7.286;2022-08-25T12:39:36;99725.50;;;28.18;38.09
55540;BME280;41384;51.418;7.286;2022-08-25T12:47:48;99730.28;;;28.21;39.08
55540;BME280;41384;51.418;7.286;2022-08-25T12:52:54;99708.47;;;28.60;37.60
55540;BME280;41384;51.418;7.286;2022-08-25T12:55:21;99715.44;;;28.49;38.97
55540;BME280;41384;51.418;7.286;2022-08-25T12:57:53;99713.50;;;28.49;37.52
55540;BME280;41384;51.418;7.286;2022-08-25T13:00:28;99710.31;;;28.47;37.42
55540;BME280;41384;51.418;7.286;2022-08-25T13:03:41;99711.72;;;28.53;37.54
55540;BME280;41384;51.418;7.286;2022-08-25T13:06:40;99712.38;;;28.72;36.65
55540;BME280;41384;51.418;7.286;2022-08-25T13:09:30;99711.66;;;29.05;37.46
55540;BME280;41384;51.418;7.286;2022-08-25T13:12:18;99700.91;;;29.08;38.45
55540;BME280;41384;51.418;7.286;2022-08-25T13:14:54;99707.88;;;28.54;37.74
55540;BME280;41384;51.418;7.286;2022-08-25T13:17:28;99707.44;;;28.95;37.03
55540;BME280;41384;51.418;7.286;2022-08-25T13:20:30;99698.94;;;28.96;37.07
55540;BME280;41384;51.418;7.286;2022-08-25T13:22:59;99695.53;;;29.21;37.09
55540;BME280;41384;51.418;7.286;2022-08-25T13:25:27;99690.22;;;29.83;33.13
55540;BME280;41384;51.418;7.286;2022-08-25T13:27:58;99692.16;;;30.20;33.47
55540;BME280;41384;51.418;7.286;2022-08-25T13:32:49;99685.34;;;30.01;34.21
55540;BME280;41384;51.418;7.286;2022-08-25T13:35:22;99684.88;;;29.99;35.21
55540;BME280;41384;51.418;7.286;2022-08-25T13:37:48;99674.34;;;29.85;35.29
55540;BME280;41384;51.418;7.286;2022-08-25T13:40:29;99665.97;;;30.03;34.16
55540;BME280;41384;51.418;7.286;2022-08-25T13:43:00;99677.19;;;29.30;36.17
55540;BME280;41384;51.418;7.286;2022-08-25T13:45:28;99674.47;;;29.18;36.28
55540;BME280;41384;51.418;7.286;2022-08-25T13:47:54;99668.88;;;29.48;36.04
55540;BME280;41384;51.418;7.286;2022-08-25T13:52:59;99664.72;;;28.83;38.69
55540;BME280;41384;51.418;7.286;2022-08-25T13:55:32;99661.56;;;29.27;37.62
55540;BME280;41384;51.418;7.286;2022-08-25T13:57:59;99664.03;;;29.53;35.78
55540;BME280;41384;51.418;7.286;2022-08-25T14:00:40;99660.69;;;29.35;36.29
55540;BME280;41384;51.418;7.286;2022-08-25T14:03:06;99667.81;;;28.94;37.54
55540;BME280;41384;51.418;7.286;2022-08-25T14:05:41;99667.50;;;28.53;37.84
55540;BME280;41384;51.418;7.286;2022-08-25T14:08:28;99657.59;;;28.78;38.83
55540;BME280;41384;51.418;7.286;2022-08-25T14:13:34;99657.31;;;28.50;39.17
55540;BME280;41384;51.418;7.286;2022-08-25T14:16:26;99646.44;;;29.05;36.91
55540;BME280;41384;51.418;7.286;2022-08-25T14:18:56;99656.03;;;28.90;38.84
55540;BME280;41384;51.418;7.286;2022-08-25T14:21:27;99652.16;;;28.27;39.44
55540;BME280;41384;51.418;7.286;2022-08-25T14:23:54;99647.66;;;28.10;40.85
55540;BME280;41384;51.418;7.286;2022-08-25T14:26:20;99650.94;;;28.24;39.27
55540;BME280;41384;51.418;7.286;2022-08-25T14:28:46;99654.19;;;28.39;40.37
55540;BME280;41384;51.418;7.286;2022-08-25T14:31:32;99651.97;;;28.96;39.60
55540;BME280;41384;51.418;7.286;2022-08-25T14:34:03;99634.63;;;29.34;34.91
55540;BME280;41384;51.418;7.286;2022-08-25T14:36:29;99637.50;;;29.63;33.79
55540;BME280;41384;51.418;7.286;2022-08-25T14:38:57;99640.34;;;29.54;36.94
55540;BME280;41384;51.418;7.286;2022-08-25T14:41:25;99642.66;;;28.63;36.64
55540;BME280;41384;51.418;7.286;2022-08-25T14:43:51;99638.16;;;28.46;36.10
55540;BME280;41384;51.418;7.286;2022-08-25T14:46:20;99635.44;;;28.46;37.61
55540;BME280;41384;51.418;7.286;2022-08-25T14:48:48;99631.66;;;28.81;38.06
55540;BME280;41384;51.418;7.286;2022-08-25T14:51:16;99636.66;;;29.37;36.58
55540;BME280;41384;51.418;7.286;2022-08-25T14:53:42;99633.75;;;28.96;37.76